Carlisle, IA (50047)

7:51 AM CST on December 11, 2016 (GMT -0600)
Carlisle | | Change Station

Elev 781 ft 41.48 °N, 93.49 °W | Updated 18 seconds ago

Overcast
Overcast
31.3 °F
Feels Like 31 °F
N
0.0
Wind Variable Wind from NW
Gusts 0.0 mph

Today
High -- | Low -- °F
--% Chance of Precip.
Yesterday
High -- | Low -- °F
Precip. -- in
Pressure 29.86 in
Visibility 10.0 miles
Clouds Overcast 2400 ft
Windchill 31 °F
Dew Point 27 °F
Humidity 85%
Rainfall 0.00 in
Snow Depth Not available.
7:30 AM 4:44 PM
Waxing Gibbous, 91% visible
METAR KDSM 111254Z 12008KT 10SM -SN OVC024 M01/M05 A2982 RMK AO2 FZDZB34E51SNB51 SLP109 P0000 I1000 T10061050
Pressure 29.86 in
Visibility 10.0 miles
Clouds Overcast 2400 ft
Windchill 31 °F
Dew Point 27 °F
Humidity 85%
Rainfall 0.00 in
Snow Depth Not available.
7:30 AM 4:44 PM
Waxing Gibbous, 91% visible
METAR KDSM 111254Z 12008KT 10SM -SN OVC024 M01/M05 A2982 RMK AO2 FZDZB34E51SNB51 SLP109 P0000 I1000 T10061050

10-Day Weather Forecast

Almanac

Astronomy

Dec. 11, 2016 Rise Set
Actual Time
Civil Twilight
Nautical Twilight
Astronomical Twilight
Moon
Length of Visible Light
Length of Day
Tomorrow will be .
, % of the Moon is Illuminated

Today's Extremes

State Highs State Lows

Community

WunderPhotos

Upload Photos

1,956,708 photos uploaded!

WunderBlog® & News

Nearby

Air Quality

  Air Quality AQ Index Pollutant
Not available.

Snow Depth

Station Depth Elevation

Earthquake Activity

City Distance Mag. Time & Date
Minimum magnitude displayed is 2.5.

Coastal Water Temperatures

Place Temperature

Stations

Nearby Weather Stations

Station Location Temp. Windchill Dew Point Humidity Wind Precip. Elev Updated Type
                   

Watches & Warnings

There are currently no watches in effect.